sensor_id;sensor_type;location;lat;lon;timestamp;temperature;humidity
59977;DHT22;45837;51.076;3.578;2023-04-01T00:01:46;20.30;55.30
59977;DHT22;45837;51.076;3.578;2023-04-01T00:04:12;20.30;55.50
59977;DHT22;45837;51.076;3.578;2023-04-01T00:06:37;20.30;55.30
59977;DHT22;45837;51.076;3.578;2023-04-01T00:09:03;20.30;55.70
59977;DHT22;45837;51.076;3.578;2023-04-01T00:11:29;20.30;55.50
59977;DHT22;45837;51.076;3.578;2023-04-01T00:13:54;20.30;55.50
59977;DHT22;45837;51.076;3.578;2023-04-01T00:16:21;20.30;55.20
59977;DHT22;45837;51.076;3.578;2023-04-01T00:18:47;20.30;55.10
59977;DHT22;45837;51.076;3.578;2023-04-01T00:21:13;20.20;55.30
59977;DHT22;45837;51.076;3.578;2023-04-01T00:23:38;20.30;55.10
59977;DHT22;45837;51.076;3.578;2023-04-01T00:26:04;20.20;55.40
59977;DHT22;45837;51.076;3.578;2023-04-01T00:28:30;20.30;55.60
59977;DHT22;45837;51.076;3.578;2023-04-01T00:30:56;20.30;55.30
59977;DHT22;45837;51.076;3.578;2023-04-01T00:33:22;20.20;55.40
59977;DHT22;45837;51.076;3.578;2023-04-01T00:35:48;20.20;55.40
59977;DHT22;45837;51.076;3.578;2023-04-01T00:38:14;20.30;55.30
59977;DHT22;45837;51.076;3.578;2023-04-01T00:40:41;20.20;55.20
59977;DHT22;45837;51.076;3.578;2023-04-01T00:43:11;20.40;55.20
59977;DHT22;45837;51.076;3.578;2023-04-01T00:45:39;20.20;55.00
59977;DHT22;45837;51.076;3.578;2023-04-01T00:48:07;20.20;55.10
59977;DHT22;45837;51.076;3.578;2023-04-01T00:50:34;20.20;55.00
59977;DHT22;45837;51.076;3.578;2023-04-01T00:53:01;20.20;55.10
59977;DHT22;45837;51.076;3.578;2023-04-01T00:55:28;20.20;55.20
59977;DHT22;45837;51.076;3.578;2023-04-01T00:57:55;20.20;55.10
59977;DHT22;45837;51.076;3.578;2023-04-01T01:00:22;20.20;55.00
59977;DHT22;45837;51.076;3.578;2023-04-01T01:02:48;20.20;55.30
59977;DHT22;45837;51.076;3.578;2023-04-01T01:05:15;20.20;55.20
59977;DHT22;45837;51.076;3.578;2023-04-01T01:07:45;20.10;55.10
59977;DHT22;45837;51.076;3.578;2023-04-01T01:10:23;20.20;55.00
59977;DHT22;45837;51.076;3.578;2023-04-01T01:15:36;20.10;55.20
59977;DHT22;45837;51.076;3.578;2023-04-01T01:18:12;20.10;55.50
59977;DHT22;45837;51.076;3.578;2023-04-01T01:20:48;20.10;55.00
59977;DHT22;45837;51.076;3.578;2023-04-01T01:29:02;20.10;55.00
59977;DHT22;45837;51.076;3.578;2023-04-01T01:36:31;20.10;55.30
59977;DHT22;45837;51.076;3.578;2023-04-01T01:39:02;20.10;55.20
59977;DHT22;45837;51.076;3.578;2023-04-01T01:41:28;20.10;55.20
59977;DHT22;45837;51.076;3.578;2023-04-01T01:43:55;20.10;55.10
59977;DHT22;45837;51.076;3.578;2023-04-01T01:46:22;20.00;55.10
59977;DHT22;45837;51.076;3.578;2023-04-01T01:48:50;20.00;55.10
59977;DHT22;45837;51.076;3.578;2023-04-01T01:51:17;20.10;55.40
59977;DHT22;45837;51.076;3.578;2023-04-01T01:53:44;20.00;55.20
59977;DHT22;45837;51.076;3.578;2023-04-01T01:56:10;20.00;56.10
59977;DHT22;45837;51.076;3.578;2023-04-01T02:01:12;20.00;55.30
59977;DHT22;45837;51.076;3.578;2023-04-01T02:03:39;20.00;55.10
59977;DHT22;45837;51.076;3.578;2023-04-01T02:06:06;20.00;55.20
59977;DHT22;45837;51.076;3.578;2023-04-01T02:11:07;20.00;54.90
59977;DHT22;45837;51.076;3.578;2023-04-01T02:13:58;20.00;55.10
59977;DHT22;45837;51.076;3.578;2023-04-01T02:17:14;20.00;54.90
59977;DHT22;45837;51.076;3.578;2023-04-01T02:19:13;20.00;55.00
59977;DHT22;45837;51.076;3.578;2023-04-01T02:21:41;20.00;55.10
59977;DHT22;45837;51.076;3.578;2023-04-01T02:24:09;20.00;55.30
59977;DHT22;45837;51.076;3.578;2023-04-01T02:26:35;20.00;55.00
59977;DHT22;45837;51.076;3.578;2023-04-01T02:29:01;20.00;55.50
59977;DHT22;45837;51.076;3.578;2023-04-01T02:31:29;20.00;55.00
59977;DHT22;45837;51.076;3.578;2023-04-01T02:33:55;19.90;55.00
59977;DHT22;45837;51.076;3.578;2023-04-01T02:36:21;19.90;55.10
59977;DHT22;45837;51.076;3.578;2023-04-01T02:38:47;19.90;56.00
59977;DHT22;45837;51.076;3.578;2023-04-01T02:41:13;19.90;55.30
59977;DHT22;45837;51.076;3.578;2023-04-01T02:43:39;19.90;55.60
59977;DHT22;45837;51.076;3.578;2023-04-01T02:46:04;19.90;55.40
59977;DHT22;45837;51.076;3.578;2023-04-01T02:48:30;19.90;55.20
59977;DHT22;45837;51.076;3.578;2023-04-01T02:50:56;19.90;56.00
59977;DHT22;45837;51.076;3.578;2023-04-01T02:53:22;19.90;55.50
59977;DHT22;45837;51.076;3.578;2023-04-01T02:55:47;19.90;55.80
59977;DHT22;45837;51.076;3.578;2023-04-01T02:58:16;19.90;55.30
59977;DHT22;45837;51.076;3.578;2023-04-01T03:00:42;19.90;55.00
59977;DHT22;45837;51.076;3.578;2023-04-01T03:03:08;19.90;55.40
59977;DHT22;45837;51.076;3.578;2023-04-01T03:05:33;19.90;55.00
59977;DHT22;45837;51.076;3.578;2023-04-01T03:07:59;19.90;55.60
59977;DHT22;45837;51.076;3.578;2023-04-01T03:10:25;19.90;55.70
59977;DHT22;45837;51.076;3.578;2023-04-01T03:12:51;19.90;55.50
59977;DHT22;45837;51.076;3.578;2023-04-01T03:15:16;19.90;55.40
59977;DHT22;45837;51.076;3.578;2023-04-01T03:17:42;19.80;55.60
59977;DHT22;45837;51.076;3.578;2023-04-01T03:20:09;19.80;55.30
59977;DHT22;45837;51.076;3.578;2023-04-01T03:22:36;19.80;54.90
59977;DHT22;45837;51.076;3.578;2023-04-01T03:25:03;19.80;55.00
59977;DHT22;45837;51.076;3.578;2023-04-01T03:27:29;19.80;54.90
59977;DHT22;45837;51.076;3.578;2023-04-01T03:29:55;19.80;55.60
59977;DHT22;45837;51.076;3.578;2023-04-01T03:32:21;19.80;55.50
59977;DHT22;45837;51.076;3.578;2023-04-01T03:34:47;19.80;55.80
59977;DHT22;45837;51.076;3.578;2023-04-01T03:37:13;19.80;55.30
59977;DHT22;45837;51.076;3.578;2023-04-01T03:39:39;19.80;55.50
59977;DHT22;45837;51.076;3.578;2023-04-01T03:42:05;19.80;55.70
59977;DHT22;45837;51.076;3.578;2023-04-01T03:44:32;19.80;55.20
59977;DHT22;45837;51.076;3.578;2023-04-01T03:46:58;19.80;54.80
59977;DHT22;45837;51.076;3.578;2023-04-01T03:49:23;19.80;55.40
59977;DHT22;45837;51.076;3.578;2023-04-01T03:51:49;19.80;55.30
59977;DHT22;45837;51.076;3.578;2023-04-01T03:54:15;19.80;55.40
59977;DHT22;45837;51.076;3.578;2023-04-01T03:56:43;19.80;55.20
59977;DHT22;45837;51.076;3.578;2023-04-01T03:59:10;19.70;55.40
59977;DHT22;45837;51.076;3.578;2023-04-01T04:01:35;19.70;55.30
59977;DHT22;45837;51.076;3.578;2023-04-01T04:04:02;19.80;55.70
59977;DHT22;45837;51.076;3.578;2023-04-01T04:06:27;19.70;55.40
59977;DHT22;45837;51.076;3.578;2023-04-01T04:08:53;19.70;55.70
59977;DHT22;45837;51.076;3.578;2023-04-01T04:11:19;19.80;55.30
59977;DHT22;45837;51.076;3.578;2023-04-01T04:13:46;19.70;55.10
59977;DHT22;45837;51.076;3.578;2023-04-01T04:16:14;19.70;55.20
59977;DHT22;45837;51.076;3.578;2023-04-01T04:18:45;19.70;55.00
59977;DHT22;45837;51.076;3.578;2023-04-01T04:21:12;19.70;55.40
59977;DHT22;45837;51.076;3.578;2023-04-01T04:23:40;19.70;54.90
59977;DHT22;45837;51.076;3.578;2023-04-01T04:26:07;19.70;54.90
59977;DHT22;45837;51.076;3.578;2023-04-01T04:28:34;19.80;54.90
59977;DHT22;45837;51.076;3.578;2023-04-01T04:31:00;19.70;54.90
59977;DHT22;45837;51.076;3.578;2023-04-01T04:33:26;19.70;54.90
59977;DHT22;45837;51.076;3.578;2023-04-01T04:35:54;19.70;55.10
59977;DHT22;45837;51.076;3.578;2023-04-01T04:38:22;19.70;54.90
59977;DHT22;45837;51.076;3.578;2023-04-01T04:40:47;19.70;55.10
59977;DHT22;45837;51.076;3.578;2023-04-01T04:43:14;19.70;55.50
59977;DHT22;45837;51.076;3.578;2023-04-01T04:45:40;19.60;54.90
59977;DHT22;45837;51.076;3.578;2023-04-01T04:48:09;19.60;55.10
59977;DHT22;45837;51.076;3.578;2023-04-01T04:50:36;19.60;54.70
59977;DHT22;45837;51.076;3.578;2023-04-01T04:53:02;19.70;55.30
59977;DHT22;45837;51.076;3.578;2023-04-01T04:55:29;19.60;54.80
59977;DHT22;45837;51.076;3.578;2023-04-01T04:58:16;19.60;55.10
59977;DHT22;45837;51.076;3.578;2023-04-01T05:00:43;19.60;55.00
59977;DHT22;45837;51.076;3.578;2023-04-01T05:03:17;19.60;54.90
59977;DHT22;45837;51.076;3.578;2023-04-01T05:05:51;19.60;55.00
59977;DHT22;45837;51.076;3.578;2023-04-01T05:08:17;19.60;54.60
59977;DHT22;45837;51.076;3.578;2023-04-01T05:10:43;19.60;55.40
59977;DHT22;45837;51.076;3.578;2023-04-01T05:13:10;19.60;55.00
59977;DHT22;45837;51.076;3.578;2023-04-01T05:15:36;19.60;55.60
59977;DHT22;45837;51.076;3.578;2023-04-01T05:18:02;19.60;55.60
59977;DHT22;45837;51.076;3.578;2023-04-01T05:20:28;19.60;55.10
59977;DHT22;45837;51.076;3.578;2023-04-01T05:22:57;19.60;55.30
59977;DHT22;45837;51.076;3.578;2023-04-01T05:25:24;19.60;55.20
59977;DHT22;45837;51.076;3.578;2023-04-01T05:27:49;19.60;55.30
59977;DHT22;45837;51.076;3.578;2023-04-01T05:30:15;19.60;55.60
59977;DHT22;45837;51.076;3.578;2023-04-01T05:32:58;19.60;55.20
59977;DHT22;45837;51.076;3.578;2023-04-01T05:35:24;19.60;55.30
59977;DHT22;45837;51.076;3.578;2023-04-01T05:37:49;19.60;55.00
59977;DHT22;45837;51.076;3.578;2023-04-01T05:40:15;19.60;55.60
59977;DHT22;45837;51.076;3.578;2023-04-01T05:42:41;19.60;55.20
59977;DHT22;45837;51.076;3.578;2023-04-01T05:45:07;19.60;55.40
59977;DHT22;45837;51.076;3.578;2023-04-01T05:47:52;19.60;54.90
59977;DHT22;45837;51.076;3.578;2023-04-01T05:50:18;19.60;54.80
59977;DHT22;45837;51.076;3.578;2023-04-01T05:52:44;19.60;54.80
59977;DHT22;45837;51.076;3.578;2023-04-01T05:55:10;19.50;55.40
59977;DHT22;45837;51.076;3.578;2023-04-01T05:57:36;19.60;55.40
59977;DHT22;45837;51.076;3.578;2023-04-01T06:00:03;19.60;55.30
59977;DHT22;45837;51.076;3.578;2023-04-01T06:02:38;18.40;54.20
59977;DHT22;45837;51.076;3.578;2023-04-01T06:05:17;19.50;54.70
59977;DHT22;45837;51.076;3.578;2023-04-01T06:07:43;19.60;54.80
59977;DHT22;45837;51.076;3.578;2023-04-01T06:10:13;19.50;56.00
59977;DHT22;45837;51.076;3.578;2023-04-01T06:12:42;19.60;55.40
59977;DHT22;45837;51.076;3.578;2023-04-01T06:15:13;19.60;56.30
59977;DHT22;45837;51.076;3.578;2023-04-01T06:17:46;19.60;56.70
59977;DHT22;45837;51.076;3.578;2023-04-01T06:25:35;19.70;56.80
59977;DHT22;45837;51.076;3.578;2023-04-01T06:31:10;19.70;57.10
59977;DHT22;45837;51.076;3.578;2023-04-01T06:33:43;19.80;57.20
59977;DHT22;45837;51.076;3.578;2023-04-01T06:41:11;19.90;58.40
59977;DHT22;45837;51.076;3.578;2023-04-01T06:43:47;20.00;57.20
59977;DHT22;45837;51.076;3.578;2023-04-01T06:55:16;20.30;57.80
59977;DHT22;45837;51.076;3.578;2023-04-01T06:58:25;20.40;56.70
59977;DHT22;45837;51.076;3.578;2023-04-01T07:01:03;20.50;56.50
59977;DHT22;45837;51.076;3.578;2023-04-01T07:05:56;20.60;56.90
59977;DHT22;45837;51.076;3.578;2023-04-01T07:08:25;20.70;56.20
59977;DHT22;45837;51.076;3.578;2023-04-01T07:11:00;20.80;56.10
59977;DHT22;45837;51.076;3.578;2023-04-01T07:13:51;20.80;56.60
59977;DHT22;45837;51.076;3.578;2023-04-01T07:16:24;20.80;56.00
59977;DHT22;45837;51.076;3.578;2023-04-01T07:18:52;20.80;55.80
59977;DHT22;45837;51.076;3.578;2023-04-01T07:21:30;21.00;56.00
59977;DHT22;45837;51.076;3.578;2023-04-01T07:24:05;21.00;55.70
59977;DHT22;45837;51.076;3.578;2023-04-01T07:26:49;21.10;55.60
59977;DHT22;45837;51.076;3.578;2023-04-01T07:29:21;21.00;55.70
59977;DHT22;45837;51.076;3.578;2023-04-01T07:34:20;21.00;56.50
59977;DHT22;45837;51.076;3.578;2023-04-01T07:37:00;21.00;55.80
59977;DHT22;45837;51.076;3.578;2023-04-01T07:45:05;21.00;56.40
59977;DHT22;45837;51.076;3.578;2023-04-01T07:50:25;21.00;56.20
59977;DHT22;45837;51.076;3.578;2023-04-01T08:05:53;21.10;56.20
59977;DHT22;45837;51.076;3.578;2023-04-01T08:22:46;21.10;56.80
59977;DHT22;45837;51.076;3.578;2023-04-01T08:25:29;21.10;57.30
59977;DHT22;45837;51.076;3.578;2023-04-01T08:27:58;21.10;56.50
59977;DHT22;45837;51.076;3.578;2023-04-01T08:30:35;21.20;56.60
59977;DHT22;45837;51.076;3.578;2023-04-01T08:33:13;21.20;56.60
59977;DHT22;45837;51.076;3.578;2023-04-01T08:36:03;21.20;56.30
59977;DHT22;45837;51.076;3.578;2023-04-01T09:14:58;20.70;51.70
59977;DHT22;45837;51.076;3.578;2023-04-01T09:23:10;20.60;51.80
59977;DHT22;45837;51.076;3.578;2023-04-01T09:28:36;20.70;52.30
59977;DHT22;45837;51.076;3.578;2023-04-01T09:44:25;20.80;53.90
59977;DHT22;45837;51.076;3.578;2023-04-01T09:52:21;20.90;55.00
59977;DHT22;45837;51.076;3.578;2023-04-01T09:55:00;20.90;55.00
59977;DHT22;45837;51.076;3.578;2023-04-01T10:19:26;21.30;54.60
59977;DHT22;45837;51.076;3.578;2023-04-01T10:36:07;21.30;58.20
59977;DHT22;45837;51.076;3.578;2023-04-01T10:47:21;21.40;58.20
59977;DHT22;45837;51.076;3.578;2023-04-01T11:28:20;21.40;59.60
59977;DHT22;45837;51.076;3.578;2023-04-01T11:33:33;21.40;58.70
59977;DHT22;45837;51.076;3.578;2023-04-01T11:41:32;21.40;59.20
59977;DHT22;45837;51.076;3.578;2023-04-01T11:44:23;21.30;59.00
59977;DHT22;45837;51.076;3.578;2023-04-01T12:16:38;21.30;61.40
59977;DHT22;45837;51.076;3.578;2023-04-01T12:19:19;21.30;61.00
59977;DHT22;45837;51.076;3.578;2023-04-01T12:24:29;21.20;59.00
59977;DHT22;45837;51.076;3.578;2023-04-01T12:32:20;21.20;59.00
59977;DHT22;45837;51.076;3.578;2023-04-01T12:34:53;21.30;59.50
59977;DHT22;45837;51.076;3.578;2023-04-01T12:47:52;21.20;59.80
59977;DHT22;45837;51.076;3.578;2023-04-01T13:11:07;21.20;59.00
59977;DHT22;45837;51.076;3.578;2023-04-01T13:13:58;21.10;58.90
59977;DHT22;45837;51.076;3.578;2023-04-01T13:23:43;21.10;59.90
59977;DHT22;45837;51.076;3.578;2023-04-01T13:28:47;21.10;59.90
59977;DHT22;45837;51.076;3.578;2023-04-01T13:34:02;21.10;60.10
59977;DHT22;45837;51.076;3.578;2023-04-01T13:44:11;21.10;60.00
59977;DHT22;45837;51.076;3.578;2023-04-01T13:46:53;21.10;59.90
59977;DHT22;45837;51.076;3.578;2023-04-01T13:52:06;21.10;60.50
59977;DHT22;45837;51.076;3.578;2023-04-01T14:00:03;21.10;60.50
59977;DHT22;45837;51.076;3.578;2023-04-01T14:18:13;21.10;60.80
59977;DHT22;45837;51.076;3.578;2023-04-01T14:29:01;21.00;60.60
59977;DHT22;45837;51.076;3.578;2023-04-01T14:31:37;21.00;60.80
59977;DHT22;45837;51.076;3.578;2023-04-01T14:36:43;21.00;61.10
59977;DHT22;45837;51.076;3.578;2023-04-01T14:49:52;21.00;60.60
59977;DHT22;45837;51.076;3.578;2023-04-01T14:52:27;21.00;60.50
59977;DHT22;45837;51.076;3.578;2023-04-01T14:54:53;21.00;60.50
59977;DHT22;45837;51.076;3.578;2023-04-01T14:57:27;20.90;60.50
59977;DHT22;45837;51.076;3.578;2023-04-01T15:00:00;20.90;60.60
59977;DHT22;45837;51.076;3.578;2023-04-01T15:02:35;20.90;60.80
59977;DHT22;45837;51.076;3.578;2023-04-01T15:10:12;20.90;61.50
59977;DHT22;45837;51.076;3.578;2023-04-01T15:17:51;20.90;62.00
59977;DHT22;45837;51.076;3.578;2023-04-01T15:20:36;20.90;61.60
59977;DHT22;45837;51.076;3.578;2023-04-01T15:23:11;20.90;62.00
59977;DHT22;45837;51.076;3.578;2023-04-01T15:31:24;20.90;62.30
59977;DHT22;45837;51.076;3.578;2023-04-01T15:39:09;20.90;61.70
59977;DHT22;45837;51.076;3.578;2023-04-01T15:44:02;20.90;62.30
59977;DHT22;45837;51.076;3.578;2023-04-01T15:46:50;20.90;62.40
59977;DHT22;45837;51.076;3.578;2023-04-01T15:49:36;20.90;62.20
59977;DHT22;45837;51.076;3.578;2023-04-01T16:02:48;21.00;63.00
59977;DHT22;45837;51.076;3.578;2023-04-01T16:10:44;21.10;63.10
59977;DHT22;45837;51.076;3.578;2023-04-01T16:13:22;21.20;62.90
59977;DHT22;45837;51.076;3.578;2023-04-01T16:15:54;21.20;62.90
59977;DHT22;45837;51.076;3.578;2023-04-01T16:18:27;21.20;63.10
59977;DHT22;45837;51.076;3.578;2023-04-01T16:21:01;21.20;62.90
59977;DHT22;45837;51.076;3.578;2023-04-01T16:26:07;21.30;62.50
59977;DHT22;45837;51.076;3.578;2023-04-01T16:28:38;21.30;62.60
59977;DHT22;45837;51.076;3.578;2023-04-01T16:33:55;21.30;62.70
59977;DHT22;45837;51.076;3.578;2023-04-01T16:36:22;21.30;62.80
59977;DHT22;45837;51.076;3.578;2023-04-01T16:38:53;21.20;62.80
59977;DHT22;45837;51.076;3.578;2023-04-01T16:41:29;21.30;62.80
59977;DHT22;45837;51.076;3.578;2023-04-01T16:43:57;21.30;62.50
59977;DHT22;45837;51.076;3.578;2023-04-01T16:46:34;21.30;62.90
59977;DHT22;45837;51.076;3.578;2023-04-01T16:56:47;21.30;62.50
59977;DHT22;45837;51.076;3.578;2023-04-01T16:59:17;21.30;62.30
59977;DHT22;45837;51.076;3.578;2023-04-01T17:01:51;21.30;62.50
59977;DHT22;45837;51.076;3.578;2023-04-01T17:04:20;21.30;62.70
59977;DHT22;45837;51.076;3.578;2023-04-01T17:14:54;21.20;63.50
59977;DHT22;45837;51.076;3.578;2023-04-01T17:17:19;21.30;64.30
59977;DHT22;45837;51.076;3.578;2023-04-01T17:20:32;21.20;63.70
59977;DHT22;45837;51.076;3.578;2023-04-01T17:30:30;21.30;64.20
59977;DHT22;45837;51.076;3.578;2023-04-01T17:33:08;21.30;63.90
59977;DHT22;45837;51.076;3.578;2023-04-01T17:38:34;21.30;63.70
59977;DHT22;45837;51.076;3.578;2023-04-01T17:46:34;21.30;63.60
59977;DHT22;45837;51.076;3.578;2023-04-01T18:00:03;21.20;62.00
59977;DHT22;45837;51.076;3.578;2023-04-01T18:07:50;21.20;62.00
59977;DHT22;45837;51.076;3.578;2023-04-01T18:21:04;21.20;61.60
59977;DHT22;45837;51.076;3.578;2023-04-01T18:23:39;21.20;61.60
59977;DHT22;45837;51.076;3.578;2023-04-01T18:26:40;21.20;61.40
59977;DHT22;45837;51.076;3.578;2023-04-01T18:29:13;21.20;61.30
59977;DHT22;45837;51.076;3.578;2023-04-01T18:31:45;21.20;61.10
59977;DHT22;45837;51.076;3.578;2023-04-01T18:42:07;21.20;61.20
59977;DHT22;45837;51.076;3.578;2023-04-01T18:44:38;21.20;61.10
59977;DHT22;45837;51.076;3.578;2023-04-01T18:49:52;21.20;61.10
59977;DHT22;45837;51.076;3.578;2023-04-01T18:54:53;21.20;61.00
59977;DHT22;45837;51.076;3.578;2023-04-01T18:57:20;21.20;60.90
59977;DHT22;45837;51.076;3.578;2023-04-01T18:59:56;21.20;61.40
59977;DHT22;45837;51.076;3.578;2023-04-01T19:02:34;21.20;60.90
59977;DHT22;45837;51.076;3.578;2023-04-01T19:10:17;21.20;61.30
59977;DHT22;45837;51.076;3.578;2023-04-01T19:15:12;21.20;61.10
59977;DHT22;45837;51.076;3.578;2023-04-01T19:17:44;21.20;60.80
59977;DHT22;45837;51.076;3.578;2023-04-01T19:20:24;21.20;60.80
59977;DHT22;45837;51.076;3.578;2023-04-01T19:23:05;21.20;60.70
59977;DHT22;45837;51.076;3.578;2023-04-01T19:28:05;21.20;60.60
59977;DHT22;45837;51.076;3.578;2023-04-01T19:43:59;19.70;59.60
59977;DHT22;45837;51.076;3.578;2023-04-01T19:46:44;21.30;60.70
59977;DHT22;45837;51.076;3.578;2023-04-01T19:52:00;21.20;60.50
59977;DHT22;45837;51.076;3.578;2023-04-01T19:57:11;21.20;60.50
59977;DHT22;45837;51.076;3.578;2023-04-01T19:59:40;21.20;60.70
59977;DHT22;45837;51.076;3.578;2023-04-01T20:07:07;21.30;62.00
59977;DHT22;45837;51.076;3.578;2023-04-01T20:14:50;21.20;60.40
59977;DHT22;45837;51.076;3.578;2023-04-01T20:20:08;21.30;59.90
59977;DHT22;45837;51.076;3.578;2023-04-01T20:25:18;21.20;59.60
59977;DHT22;45837;51.076;3.578;2023-04-01T20:27:56;21.20;59.80
59977;DHT22;45837;51.076;3.578;2023-04-01T20:30:27;21.20;59.80
59977;DHT22;45837;51.076;3.578;2023-04-01T20:34:02;21.20;60.00
59977;DHT22;45837;51.076;3.578;2023-04-01T20:46:27;21.10;59.20
59977;DHT22;45837;51.076;3.578;2023-04-01T20:51:22;21.00;59.80
59977;DHT22;45837;51.076;3.578;2023-04-01T20:53:57;21.00;59.20
59977;DHT22;45837;51.076;3.578;2023-04-01T20:56:36;21.00;59.00
59977;DHT22;45837;51.076;3.578;2023-04-01T21:22:44;20.90;58.70
59977;DHT22;45837;51.076;3.578;2023-04-01T21:27:48;20.80;58.50
59977;DHT22;45837;51.076;3.578;2023-04-01T21:45:16;20.70;58.30
59977;DHT22;45837;51.076;3.578;2023-04-01T21:50:37;20.80;58.30
59977;DHT22;45837;51.076;3.578;2023-04-01T21:55:57;20.70;58.30
59977;DHT22;45837;51.076;3.578;2023-04-01T22:08:55;20.80;58.30
59977;DHT22;45837;51.076;3.578;2023-04-01T22:14:02;20.70;58.10
59977;DHT22;45837;51.076;3.578;2023-04-01T22:16:48;20.70;58.20
59977;DHT22;45837;51.076;3.578;2023-04-01T22:19:35;20.70;58.00
59977;DHT22;45837;51.076;3.578;2023-04-01T22:22:08;20.70;58.00
59977;DHT22;45837;51.076;3.578;2023-04-01T22:27:12;20.70;58.60
59977;DHT22;45837;51.076;3.578;2023-04-01T22:32:16;20.60;57.80
59977;DHT22;45837;51.076;3.578;2023-04-01T22:42:43;20.60;57.80
59977;DHT22;45837;51.076;3.578;2023-04-01T22:47:54;20.70;58.10
59977;DHT22;45837;51.076;3.578;2023-04-01T22:50:34;20.60;57.70
59977;DHT22;45837;51.076;3.578;2023-04-01T22:53:08;20.60;57.70
59977;DHT22;45837;51.076;3.578;2023-04-01T22:55:42;20.60;57.80
59977;DHT22;45837;51.076;3.578;2023-04-01T22:58:11;20.60;57.80
59977;DHT22;45837;51.076;3.578;2023-04-01T23:03:27;20.50;57.60
59977;DHT22;45837;51.076;3.578;2023-04-01T23:05:55;20.60;57.60
59977;DHT22;45837;51.076;3.578;2023-04-01T23:10:51;20.50;57.60
59977;DHT22;45837;51.076;3.578;2023-04-01T23:13:24;20.50;57.70
59977;DHT22;45837;51.076;3.578;2023-04-01T23:15:51;20.50;57.80
59977;DHT22;45837;51.076;3.578;2023-04-01T23:21:44;20.50;57.50
59977;DHT22;45837;51.076;3.578;2023-04-01T23:24:15;20.50;57.50
59977;DHT22;45837;51.076;3.578;2023-04-01T23:26:47;20.50;57.50
59977;DHT22;45837;51.076;3.578;2023-04-01T23:29:16;20.40;57.40
59977;DHT22;45837;51.076;3.578;2023-04-01T23:31:46;20.50;57.90
59977;DHT22;45837;51.076;3.578;2023-04-01T23:36:57;20.40;58.00
59977;DHT22;45837;51.076;3.578;2023-04-01T23:42:00;20.50;57.40
59977;DHT22;45837;51.076;3.578;2023-04-01T23:44:26;20.40;57.50
59977;DHT22;45837;51.076;3.578;2023-04-01T23:46:53;20.40;57.50
59977;DHT22;45837;51.076;3.578;2023-04-01T23:49:24;20.40;58.30
59977;DHT22;45837;51.076;3.578;2023-04-01T23:51:56;20.40;57.60
59977;DHT22;45837;51.076;3.578;2023-04-01T23:54:33;20.40;57.40
59977;DHT22;45837;51.076;3.578;2023-04-01T23:56:59;20.40;57.40
59977;DHT22;45837;51.076;3.578;2023-04-01T23:59:29;20.40;57.50
